Springfield, IL (62794)

8:00 AM CDT on July 07, 2015 (GMT -0500)
Southwest Springfield | | Change Station
CLOSE
Current Station
Personal Weather Station
Location: Springfield, IL
Elevation: 607 ft
Nearby Weather Stations

Elev 607 ft 39.76 °N, 89.68 °W | Updated 8 seconds ago

Rain
Rain
71.1 °F
Feels Like 71.1 °F
N
3.5
Wind Variable Wind from SE
Gusts 3.5 mph

Today
High -- | Low -- °F
--% Chance of Precip.
Yesterday
High -- | Low -- °F
Precip. -- in
5:37 AM 8:29 PM
Waning Gibbous, 65% visible
Pressure 29.90 in
Visibility 4.0 miles
Clouds Mostly Cloudy 500 ft
Overcast 1000 ft
Dew Point 70 °F
Humidity 97%
Rainfall 0.97 in
Snow Depth Not available.
UV 1 out of 12
Pollen .50 out of 12
Air Quality Not available.
Flu Activity Not available.
METAR KSPI 071252Z 33011G19KT 4SM -RA BR BKN005 OVC010 21/19 A2991 RMK AO2 RAE29B44 SLP124 P0000 T02110194

More Conditions Fewer Conditions

Pressure 29.90 in
Visibility 4.0 miles
Clouds Mostly Cloudy 500 ft
Overcast 1000 ft
Dew Point 70 °F
Humidity 97%
Rainfall 0.97 in
Snow Depth Not available.
UV 1 out of 12
Pollen .50 out of 12
Air Quality Not available.
Flu Activity Not available.
METAR KSPI 071252Z 33011G19KT 4SM -RA BR BKN005 OVC010 21/19 A2991 RMK AO2 RAE29B44 SLP124 P0000 T02110194

More Conditions Fewer Conditions

10-Day Weather Forecast

×

Almanac

Astronomy

Jul. 07, 2015 Rise Set
Actual Time
Civil Twilight
Nautical Twilight
Astronomical Twilight
Moon
Length of Visible Light
Length of Day
Tomorrow will be .
, % of the Moon is Illuminated

Today's Extremes

State Highs State Lows

Community

WunderPhotos

Upload Photos

1,835,787 photos uploaded!

WunderBlogs® & News

Nearby

Air Quality

  Air Quality AQ Index Pollutant
Not available.

Snow Depth

Station Depth Elevation

Earthquake Activity

City Distance Mag. Time & Date
Minimum magnitude displayed is 2.5.

Coastal Water Temperatures

Place Temperature

Stations

Nearby Weather Stations

Station Location Temp. Windchill Dew Point Humidity Wind Precip. Elev Updated Type